Time,TemperatureF,DewpointF,PressureIn,WindDirection,WindDirectionDegrees,WindSpeedMPH,WindSpeedGustMPH,Humidity,HourlyPrecipIn,Conditions,Clouds,dailyrainin,SoftwareType,DateUTC
2013-08-17 00:02:00,75.6,56.2,29.80,SSW,201,0.0,0.0,51,0.00,,---,0.00,VWS V14.01,2013-08-17 07:02:00,
2013-08-17 00:07:00,75.3,55.4,29.80,SSW,201,0.0,0.0,50,0.00,,---,0.00,VWS V14.01,2013-08-17 07:07:00,
2013-08-17 00:12:00,75.0,55.7,29.80,SSW,200,0.0,0.0,51,0.00,,---,0.00,VWS V14.01,2013-08-17 07:12:00,
2013-08-17 00:17:00,74.7,55.9,29.80,SSW,201,0.0,0.0,52,0.00,,---,0.00,VWS V14.01,2013-08-17 07:17:00,
2013-08-17 00:22:00,74.5,55.7,29.80,SSW,201,0.0,0.0,52,0.00,,---,0.00,VWS V14.01,2013-08-17 07:22:00,
2013-08-17 00:27:00,74.4,55.7,29.80,SSW,201,0.0,0.0,52,0.00,,---,0.00,VWS V14.01,2013-08-17 07:27:00,
2013-08-17 00:32:00,74.2,56.0,29.80,SSW,201,0.0,0.0,53,0.00,,---,0.00,VWS V14.01,2013-08-17 07:32:00,
2013-08-17 00:37:00,74.0,56.3,29.80,SSW,201,0.0,0.0,54,0.00,,---,0.00,VWS V14.01,2013-08-17 07:37:00,
2013-08-17 00:42:00,73.8,56.6,29.80,SSW,201,0.0,0.0,55,0.00,,---,0.00,VWS V14.01,2013-08-17 07:42:00,
2013-08-17 00:47:00,73.5,56.9,29.80,SSW,201,0.0,0.0,56,0.00,,---,0.00,VWS V14.01,2013-08-17 07:47:00,
2013-08-17 00:52:00,73.1,56.5,29.80,SSW,201,0.0,0.0,56,0.00,,---,0.00,VWS V14.01,2013-08-17 07:52:00,
2013-08-17 00:57:00,72.8,56.2,29.80,SSW,201,0.0,0.0,56,0.00,,---,0.00,VWS V14.01,2013-08-17 07:57:00,
2013-08-17 01:02:00,72.5,55.4,29.80,SSW,201,0.0,0.0,55,0.00,,---,0.00,VWS V14.01,2013-08-17 08:02:00,
2013-08-17 01:08:00,72.3,55.2,29.79,SSW,200,0.0,0.0,55,0.00,,---,0.00,VWS V14.01,2013-08-17 08:08:00,
2013-08-17 01:13:00,72.2,54.7,29.79,SSW,200,0.0,0.0,54,0.00,,---,0.00,VWS V14.01,2013-08-17 08:13:00,
2013-08-17 01:18:00,72.1,54.6,29.79,SSW,201,0.0,0.0,54,0.00,,---,0.00,VWS V14.01,2013-08-17 08:18:00,
2013-08-17 01:23:00,72.0,54.5,29.79,SSW,201,0.0,0.0,54,0.00,,---,0.00,VWS V14.01,2013-08-17 08:23:00,
2013-08-17 01:28:00,72.0,54.5,29.78,SSW,201,0.0,0.0,54,0.00,,---,0.00,VWS V14.01,2013-08-17 08:28:00,
2013-08-17 01:33:00,71.9,54.4,29.79,SSW,201,0.0,0.0,54,0.00,,---,0.00,VWS V14.01,2013-08-17 08:33:00,
2013-08-17 01:38:00,71.6,54.1,29.79,SSW,200,0.0,0.0,54,0.00,,---,0.00,VWS V14.01,2013-08-17 08:38:00,
2013-08-17 01:43:00,71.4,54.4,29.79,SSW,201,0.0,0.0,55,0.00,,---,0.00,VWS V14.01,2013-08-17 08:43:00,
2013-08-17 01:48:00,71.1,54.1,29.79,WSW,246,0.0,0.0,55,0.00,,---,0.00,VWS V14.01,2013-08-17 08:48:00,
2013-08-17 01:53:00,70.9,54.0,29.78,WSW,246,0.0,0.0,55,0.00,,---,0.00,VWS V14.01,2013-08-17 08:53:00,
2013-08-17 01:58:00,70.8,53.8,29.78,WSW,246,0.0,0.0,55,0.00,,---,0.00,VWS V14.01,2013-08-17 08:58:00,
2013-08-17 02:03:00,70.6,53.7,29.78,WSW,246,0.0,0.0,55,0.00,,---,0.00,VWS V14.01,2013-08-17 09:03:00,
2013-08-17 02:08:00,70.5,54.1,29.78,WSW,246,0.0,0.0,56,0.00,,---,0.00,VWS V14.01,2013-08-17 09:08:00,
2013-08-17 02:13:00,70.4,54.0,29.78,WSW,246,0.0,0.0,56,0.00,,---,0.00,VWS V14.01,2013-08-17 09:13:00,
2013-08-17 02:18:00,70.3,53.4,29.78,WSW,246,0.0,0.0,55,0.00,,---,0.00,VWS V14.01,2013-08-17 09:18:00,
2013-08-17 02:23:00,70.1,53.2,29.78,WSW,246,0.0,0.0,55,0.00,,---,0.00,VWS V14.01,2013-08-17 09:23:00,
2013-08-17 02:28:00,70.0,53.1,29.78,SE,133,0.0,0.0,55,0.00,,---,0.00,VWS V14.01,2013-08-17 09:28:00,
2013-08-17 02:33:00,69.8,53.4,29.78,SE,133,0.0,0.0,56,0.00,,---,0.00,VWS V14.01,2013-08-17 09:33:00,
2013-08-17 02:38:00,69.7,52.8,29.78,ESE,123,1.0,0.0,55,0.00,,---,0.00,VWS V14.01,2013-08-17 09:38:00,
2013-08-17 02:43:00,69.7,53.8,29.78,SE,130,0.0,0.0,57,0.00,,---,0.00,VWS V14.01,2013-08-17 09:43:00,
2013-08-17 02:48:00,69.7,53.3,29.78,SE,130,0.0,0.0,56,0.00,,---,0.00,VWS V14.01,2013-08-17 09:48:00,
2013-08-17 02:53:00,69.3,53.4,29.78,South,173,0.0,0.0,57,0.00,,---,0.00,VWS V14.01,2013-08-17 09:53:00,
2013-08-17 02:58:00,69.2,52.8,29.78,South,173,0.0,0.0,56,0.00,,---,0.00,VWS V14.01,2013-08-17 09:58:00,
2013-08-17 03:03:00,69.2,52.4,29.78,South,173,0.0,0.0,55,0.00,,---,0.00,VWS V14.01,2013-08-17 10:03:00,
2013-08-17 03:08:00,69.3,52.5,29.78,South,173,0.0,0.0,55,0.00,,---,0.00,VWS V14.01,2013-08-17 10:08:00,
2013-08-17 03:13:00,69.2,52.8,29.78,SSW,192,0.0,0.0,56,0.00,,---,0.00,VWS V14.01,2013-08-17 10:13:00,
2013-08-17 03:18:00,69.1,51.8,29.78,SSW,192,0.0,0.0,54,0.00,,---,0.00,VWS V14.01,2013-08-17 10:18:00,
2013-08-17 03:23:00,69.1,52.8,29.78,SSW,212,0.0,0.0,56,0.00,,---,0.00,VWS V14.01,2013-08-17 10:23:00,
2013-08-17 03:28:00,69.0,52.7,29.78,SSW,212,0.0,0.0,56,0.00,,---,0.00,VWS V14.01,2013-08-17 10:28:00,
2013-08-17 03:33:00,68.9,52.1,29.78,SSW,212,0.0,0.0,55,0.00,,---,0.00,VWS V14.01,2013-08-17 10:33:00,
2013-08-17 03:38:00,68.9,52.6,29.78,SSW,212,0.0,0.0,56,0.00,,---,0.00,VWS V14.01,2013-08-17 10:38:00,
2013-08-17 03:43:00,68.9,53.1,29.78,SSW,212,0.0,0.0,57,0.00,,---,0.00,VWS V14.01,2013-08-17 10:43:00,
2013-08-17 03:48:00,68.9,53.1,29.78,SSW,212,0.0,0.0,57,0.00,,---,0.00,VWS V14.01,2013-08-17 10:48:00,
2013-08-17 03:53:00,68.8,52.0,29.78,SW,222,0.0,0.0,55,0.00,,---,0.00,VWS V14.01,2013-08-17 10:53:00,
2013-08-17 03:58:00,68.7,51.9,29.78,East,98,0.0,0.0,55,0.00,,---,0.00,VWS V14.01,2013-08-17 10:58:00,
2013-08-17 04:03:00,68.7,52.4,29.78,East,98,0.0,0.0,56,0.00,,---,0.00,VWS V14.01,2013-08-17 11:03:00,
2013-08-17 04:08:00,68.7,52.9,29.78,East,98,0.0,0.0,57,0.00,,---,0.00,VWS V14.01,2013-08-17 11:08:00,
2013-08-17 04:13:00,68.4,52.6,29.78,East,98,0.0,0.0,57,0.00,,---,0.00,VWS V14.01,2013-08-17 11:13:00,
2013-08-17 04:18:00,68.4,52.1,29.78,East,97,0.0,0.0,56,0.00,,---,0.00,VWS V14.01,2013-08-17 11:18:00,
2013-08-17 04:23:00,68.4,52.1,29.78,East,96,0.0,0.0,56,0.00,,---,0.00,VWS V14.01,2013-08-17 11:23:00,
2013-08-17 04:28:00,68.4,52.1,29.78,East,96,0.0,0.0,56,0.00,,---,0.00,VWS V14.01,2013-08-17 11:28:00,
2013-08-17 04:33:00,68.3,52.5,29.78,East,96,0.0,0.0,57,0.00,,---,0.00,VWS V14.01,2013-08-17 11:33:00,
2013-08-17 04:38:00,68.2,51.9,29.78,East,96,0.0,0.0,56,0.00,,---,0.00,VWS V14.01,2013-08-17 11:38:00,
2013-08-17 04:44:00,68.1,51.8,29.78,East,96,0.0,0.0,56,0.00,,---,0.00,VWS V14.01,2013-08-17 11:44:00,
2013-08-17 04:49:00,68.0,51.7,29.78,East,96,0.0,0.0,56,0.00,,---,0.00,VWS V14.01,2013-08-17 11:49:00,
2013-08-17 04:54:00,67.9,51.6,29.78,NE,47,0.0,0.0,56,0.00,,---,0.00,VWS V14.01,2013-08-17 11:54:00,
2013-08-17 04:59:00,67.9,51.6,29.78,West,273,0.0,0.0,56,0.00,,---,0.00,VWS V14.01,2013-08-17 11:59:00,
2013-08-17 05:04:00,67.9,51.2,29.78,West,273,0.0,0.0,55,0.00,,---,0.00,VWS V14.01,2013-08-17 12:04:00,
2013-08-17 05:09:00,67.9,51.6,29.78,West,272,1.0,0.0,56,0.00,,---,0.00,VWS V14.01,2013-08-17 12:09:00,
2013-08-17 05:14:00,67.7,52.4,29.78,West,273,0.0,0.0,58,0.00,,---,0.00,VWS V14.01,2013-08-17 12:14:00,
2013-08-17 05:19:00,67.5,52.2,29.78,West,273,0.0,0.0,58,0.00,,---,0.00,VWS V14.01,2013-08-17 12:19:00,
2013-08-17 05:24:00,67.2,51.5,29.78,West,273,0.0,0.0,57,0.00,,---,0.00,VWS V14.01,2013-08-17 12:24:00,
2013-08-17 05:29:00,67.0,52.2,29.78,West,272,0.0,0.0,59,0.00,,---,0.00,VWS V14.01,2013-08-17 12:29:00,
2013-08-17 05:34:00,67.0,52.2,29.79,West,273,0.0,0.0,59,0.00,,---,0.00,VWS V14.01,2013-08-17 12:34:00,
2013-08-17 05:39:00,66.8,51.6,29.79,West,273,0.0,0.0,58,0.00,,---,0.00,VWS V14.01,2013-08-17 12:39:00,
2013-08-17 05:44:00,66.7,52.4,29.79,West,273,0.0,0.0,60,0.00,,---,0.00,VWS V14.01,2013-08-17 12:44:00,
2013-08-17 05:49:00,66.6,50.9,29.79,West,273,0.0,0.0,57,0.00,,---,0.00,VWS V14.01,2013-08-17 12:49:00,
2013-08-17 05:54:00,66.4,51.7,29.79,West,273,0.0,0.0,59,0.00,,---,0.00,VWS V14.01,2013-08-17 12:54:00,
2013-08-17 05:59:00,66.3,51.6,29.79,West,273,0.0,0.0,59,0.00,,---,0.00,VWS V14.01,2013-08-17 12:59:00,
2013-08-17 06:04:00,66.3,52.0,29.79,West,273,0.0,0.0,60,0.00,,---,0.00,VWS V14.01,2013-08-17 13:04:00,
2013-08-17 06:09:00,66.3,52.0,29.79,West,273,0.0,0.0,60,0.00,,---,0.00,VWS V14.01,2013-08-17 13:09:00,
2013-08-17 06:14:00,66.1,50.9,29.80,West,273,0.0,0.0,58,0.00,,---,0.00,VWS V14.01,2013-08-17 13:14:00,
2013-08-17 06:19:00,65.9,51.2,29.80,West,273,0.0,0.0,59,0.00,,---,0.00,VWS V14.01,2013-08-17 13:19:00,
2013-08-17 06:24:00,65.5,50.3,29.79,West,273,0.0,0.0,58,0.00,,---,0.00,VWS V14.01,2013-08-17 13:24:00,
2013-08-17 06:30:00,65.3,50.2,29.79,West,268,0.0,0.0,58,0.00,,---,0.00,VWS V14.01,2013-08-17 13:30:00,
2013-08-17 06:35:00,65.3,50.6,29.79,West,269,0.0,0.0,59,0.00,,---,0.00,VWS V14.01,2013-08-17 13:35:00,
2013-08-17 06:40:00,65.4,51.2,29.80,West,269,0.0,0.0,60,0.00,,---,0.00,VWS V14.01,2013-08-17 13:40:00,
2013-08-17 06:45:00,65.4,50.7,29.80,West,268,0.0,0.0,59,0.00,,---,0.00,VWS V14.01,2013-08-17 13:45:00,
2013-08-17 06:50:00,65.2,51.0,29.80,West,268,0.0,0.0,60,0.00,,---,0.00,VWS V14.01,2013-08-17 13:50:00,
2013-08-17 06:55:00,65.2,51.0,29.80,West,269,0.0,0.0,60,0.00,,---,0.00,VWS V14.01,2013-08-17 13:55:00,
2013-08-17 07:00:00,65.2,51.0,29.80,WNW,300,2.0,0.0,60,0.00,,---,0.00,VWS V14.01,2013-08-17 14:00:00,
2013-08-17 07:05:00,65.3,51.1,29.80,WNW,303,0.0,0.0,60,0.00,,---,0.00,VWS V14.01,2013-08-17 14:05:00,
2013-08-17 07:10:00,65.2,51.0,29.80,WNW,302,0.0,0.0,60,0.00,,---,0.00,VWS V14.01,2013-08-17 14:10:00,
2013-08-17 07:15:00,65.5,50.8,29.81,WNW,302,0.0,0.0,59,0.00,,---,0.00,VWS V14.01,2013-08-17 14:15:00,
2013-08-17 07:20:00,65.5,49.9,29.81,WNW,303,0.0,0.0,57,0.00,,---,0.00,VWS V14.01,2013-08-17 14:20:00,
2013-08-17 07:25:00,65.4,50.2,29.81,WNW,302,0.0,0.0,58,0.00,,---,0.00,VWS V14.01,2013-08-17 14:25:00,
2013-08-17 07:30:00,65.6,51.8,29.82,WNW,302,0.0,0.0,61,0.00,,---,0.00,VWS V14.01,2013-08-17 14:30:00,
2013-08-17 07:35:00,65.8,51.5,29.82,WNW,302,0.0,0.0,60,0.00,,---,0.00,VWS V14.01,2013-08-17 14:35:00,
2013-08-17 07:40:00,66.4,50.7,29.81,WNW,302,0.0,0.0,57,0.00,,---,0.00,VWS V14.01,2013-08-17 14:40:00,
2013-08-17 07:45:00,66.7,51.9,29.81,WNW,302,0.0,0.0,59,0.00,,---,0.00,VWS V14.01,2013-08-17 14:45:00,
2013-08-17 07:50:00,66.9,51.2,29.82,NW,317,0.0,0.0,57,0.00,,---,0.00,VWS V14.01,2013-08-17 14:50:00,
2013-08-17 07:55:00,67.3,51.6,29.81,NW,317,0.0,0.0,57,0.00,,---,0.00,VWS V14.01,2013-08-17 14:55:00,
2013-08-17 08:00:00,67.5,52.7,29.81,NW,321,0.0,0.0,59,0.00,,---,0.00,VWS V14.01,2013-08-17 15:00:00,
2013-08-17 08:05:00,67.6,54.1,29.81,NW,321,0.0,0.0,62,0.00,,---,0.00,VWS V14.01,2013-08-17 15:05:00,
2013-08-17 08:10:00,67.8,53.4,29.81,NW,321,0.0,0.0,60,0.00,,---,0.00,VWS V14.01,2013-08-17 15:10:00,
2013-08-17 08:15:00,67.9,54.0,29.81,NW,321,0.0,0.0,61,0.00,,---,0.00,VWS V14.01,2013-08-17 15:15:00,
2013-08-17 08:20:00,68.2,53.3,29.81,East,86,0.0,0.0,59,0.00,,---,0.00,VWS V14.01,2013-08-17 15:20:00,
2013-08-17 08:25:00,68.6,51.3,29.81,East,93,0.0,0.0,54,0.00,,---,0.00,VWS V14.01,2013-08-17 15:25:00,
2013-08-17 08:30:00,69.1,51.3,29.81,East,93,0.0,0.0,53,0.00,,---,0.00,VWS V14.01,2013-08-17 15:30:00,
2013-08-17 08:35:00,69.5,52.2,29.81,ENE,61,0.0,0.0,54,0.00,,---,0.00,VWS V14.01,2013-08-17 15:35:00,
2013-08-17 08:40:00,70.0,49.4,29.81,ENE,61,0.0,0.0,48,0.00,,---,0.00,VWS V14.01,2013-08-17 15:40:00,
2013-08-17 08:45:00,70.8,50.7,29.82,NNE,13,0.0,0.0,49,0.00,,---,0.00,VWS V14.01,2013-08-17 15:45:00,
2013-08-17 08:50:00,71.4,51.8,29.81,NNW,331,0.0,0.0,50,0.00,,---,0.00,VWS V14.01,2013-08-17 15:50:00,
2013-08-17 08:55:00,72.0,52.4,29.81,NNW,329,0.0,0.0,50,0.00,,---,0.00,VWS V14.01,2013-08-17 15:55:00,
2013-08-17 09:00:00,72.7,52.5,29.82,NW,315,0.0,0.0,49,0.00,,---,0.00,VWS V14.01,2013-08-17 16:00:00,
2013-08-17 09:05:00,73.1,53.4,29.81,NW,319,0.0,0.0,50,0.00,,---,0.00,VWS V14.01,2013-08-17 16:05:00,
2013-08-17 09:10:00,73.6,53.8,29.81,NW,319,1.0,0.0,50,0.00,,---,0.00,VWS V14.01,2013-08-17 16:10:00,
2013-08-17 09:15:00,74.0,54.2,29.81,NNW,331,0.0,0.0,50,0.00,,---,0.00,VWS V14.01,2013-08-17 16:15:00,
2013-08-17 09:20:00,74.5,53.5,29.81,ESE,105,2.0,0.0,48,0.00,,---,0.00,VWS V14.01,2013-08-17 16:20:00,
2013-08-17 09:25:00,75.0,53.4,29.81,East,80,0.0,0.0,47,0.00,,---,0.00,VWS V14.01,2013-08-17 16:25:00,
2013-08-17 09:30:00,75.2,53.0,29.81,NE,49,1.0,0.0,46,0.00,,---,0.00,VWS V14.01,2013-08-17 16:30:00,
2013-08-17 09:35:00,75.6,54.0,29.81,North,355,0.0,0.0,47,0.00,,---,0.00,VWS V14.01,2013-08-17 16:35:00,
2013-08-17 09:40:00,76.0,53.8,29.81,ENE,69,0.0,0.0,46,0.00,,---,0.00,VWS V14.01,2013-08-17 16:40:00,
2013-08-17 09:45:00,76.5,54.2,29.81,ENE,71,3.0,0.0,46,0.00,,---,0.00,VWS V14.01,2013-08-17 16:45:00,
2013-08-17 09:50:00,77.4,54.4,29.81,West,273,1.0,0.0,45,0.00,,---,0.00,VWS V14.01,2013-08-17 16:50:00,
2013-08-17 09:55:00,78.1,54.4,29.82,NNW,338,0.0,0.0,44,0.00,,---,0.00,VWS V14.01,2013-08-17 16:55:00,
2013-08-17 10:01:00,78.6,54.3,29.81,NE,55,1.0,0.0,43,0.00,,---,0.00,VWS V14.01,2013-08-17 17:01:00,
2013-08-17 10:06:00,78.8,54.4,29.81,NE,46,0.0,0.0,43,0.00,,---,0.00,VWS V14.01,2013-08-17 17:06:00,
2013-08-17 10:11:00,79.2,52.8,29.81,WNW,284,0.0,0.0,40,0.00,,---,0.00,VWS V14.01,2013-08-17 17:11:00,
2013-08-17 10:16:00,79.6,53.2,29.81,WNW,284,0.0,0.0,40,0.00,,---,0.00,VWS V14.01,2013-08-17 17:16:00,
2013-08-17 10:21:00,79.8,53.4,29.82,NNW,333,0.0,0.0,40,0.00,,---,0.00,VWS V14.01,2013-08-17 17:21:00,
2013-08-17 10:26:00,80.4,53.2,29.82,North,9,3.0,0.0,39,0.00,,---,0.00,VWS V14.01,2013-08-17 17:26:00,
2013-08-17 10:31:00,81.1,54.5,29.82,NNE,17,2.0,0.0,40,0.00,,---,0.00,VWS V14.01,2013-08-17 17:31:00,
2013-08-17 10:36:00,81.6,55.0,29.82,North,9,4.0,0.0,40,0.00,,---,0.00,VWS V14.01,2013-08-17 17:36:00,
2013-08-17 10:41:00,82.3,53.5,29.82,West,275,0.0,0.0,37,0.00,,---,0.00,VWS V14.01,2013-08-17 17:41:00,
2013-08-17 10:46:00,82.8,52.4,29.81,ENE,78,1.0,0.0,35,0.00,,---,0.00,VWS V14.01,2013-08-17 17:46:00,
2013-08-17 10:51:00,83.2,51.9,29.81,West,274,2.0,0.0,34,0.00,,---,0.00,VWS V14.01,2013-08-17 17:51:00,
2013-08-17 10:56:00,83.4,52.9,29.81,ENE,62,2.0,0.0,35,0.00,,---,0.00,VWS V14.01,2013-08-17 17:56:00,
2013-08-17 11:01:00,83.9,55.6,29.81,NE,44,2.0,0.0,38,0.00,,---,0.00,VWS V14.01,2013-08-17 18:01:00,
2013-08-17 11:06:00,84.7,53.3,29.81,East,101,0.0,0.0,34,0.00,,---,0.00,VWS V14.01,2013-08-17 18:06:00,
2013-08-17 11:11:00,85.5,56.3,29.80,NNE,13,0.0,0.0,37,0.00,,---,0.00,VWS V14.01,2013-08-17 18:11:00,
2013-08-17 11:16:00,85.9,54.3,29.80,East,90,2.0,0.0,34,0.00,,---,0.00,VWS V14.01,2013-08-17 18:16:00,
2013-08-17 11:21:00,85.8,55.0,29.80,NNW,335,0.0,0.0,35,0.00,,---,0.00,VWS V14.01,2013-08-17 18:21:00,
2013-08-17 11:26:00,86.4,53.9,29.80,NE,41,1.0,0.0,33,0.00,,---,0.00,VWS V14.01,2013-08-17 18:26:00,
2013-08-17 11:31:00,86.9,54.4,29.80,East,98,2.0,0.0,33,0.00,,---,0.00,VWS V14.01,2013-08-17 18:31:00,
2013-08-17 11:36:00,87.5,54.9,29.79,West,272,2.0,0.0,33,0.00,,---,0.00,VWS V14.01,2013-08-17 18:36:00,
2013-08-17 11:41:00,88.2,56.3,29.79,NNE,24,1.0,0.0,34,0.00,,---,0.00,VWS V14.01,2013-08-17 18:41:00,
2013-08-17 11:46:00,89.1,55.4,29.79,NNW,340,2.0,0.0,32,0.00,,---,0.00,VWS V14.01,2013-08-17 18:46:00,
2013-08-17 11:51:00,89.0,55.3,29.79,NNW,335,0.0,0.0,32,0.00,,---,0.00,VWS V14.01,2013-08-17 18:51:00,
2013-08-17 11:56:00,89.4,55.7,29.79,North,5,0.0,0.0,32,0.00,,---,0.00,VWS V14.01,2013-08-17 18:56:00,
2013-08-17 12:01:00,89.8,56.0,29.79,NW,317,0.0,0.0,32,0.00,,---,0.00,VWS V14.01,2013-08-17 19:01:00,
2013-08-17 12:06:00,90.3,56.5,29.79,NNW,336,1.0,0.0,32,0.00,,---,0.00,VWS V14.01,2013-08-17 19:06:00,
2013-08-17 12:11:00,90.7,54.1,29.78,ESE,107,1.0,0.0,29,0.00,,---,0.00,VWS V14.01,2013-08-17 19:11:00,
2013-08-17 12:16:00,91.1,55.4,29.78,ENE,57,3.0,0.0,30,0.00,,---,0.00,VWS V14.01,2013-08-17 19:16:00,
2013-08-17 12:21:00,91.7,55.9,29.79,ENE,62,0.0,0.0,30,0.00,,---,0.00,VWS V14.01,2013-08-17 19:21:00,
2013-08-17 12:26:00,91.9,55.1,29.79,NE,44,3.0,0.0,29,0.00,,---,0.00,VWS V14.01,2013-08-17 19:26:00,
2013-08-17 12:31:00,92.3,55.5,29.79,North,350,2.0,0.0,29,0.00,,---,0.00,VWS V14.01,2013-08-17 19:31:00,
2013-08-17 12:36:00,92.7,54.8,29.79,NNE,29,1.0,0.0,28,0.00,,---,0.00,VWS V14.01,2013-08-17 19:36:00,
2013-08-17 12:41:00,92.8,53.9,29.78,NNW,348,1.0,0.0,27,0.00,,---,0.00,VWS V14.01,2013-08-17 19:41:00,
2013-08-17 12:46:00,92.5,53.7,29.78,ENE,61,1.0,0.0,27,0.00,,---,0.00,VWS V14.01,2013-08-17 19:46:00,
2013-08-17 12:51:00,92.7,53.9,29.78,NW,309,1.0,0.0,27,0.00,,---,0.00,VWS V14.01,2013-08-17 19:51:00,
2013-08-17 12:56:00,92.7,53.9,29.78,NNE,26,1.0,0.0,27,0.00,,---,0.00,VWS V14.01,2013-08-17 19:56:00,
2013-08-17 13:01:00,93.4,54.5,29.78,West,273,1.0,0.0,27,0.00,,---,0.00,VWS V14.01,2013-08-17 20:01:00,
2013-08-17 13:06:00,93.6,55.6,29.78,ENE,62,0.0,0.0,28,0.00,,---,0.00,VWS V14.01,2013-08-17 20:06:00,
2013-08-17 13:11:00,93.8,54.8,29.78,NE,42,1.0,0.0,27,0.00,,---,0.00,VWS V14.01,2013-08-17 20:11:00,
2013-08-17 13:16:00,94.0,55.0,29.77,NE,35,3.0,0.0,27,0.00,,---,0.00,VWS V14.01,2013-08-17 20:16:00,
2013-08-17 13:21:00,94.1,54.0,29.77,East,101,4.0,0.0,26,0.00,,---,0.00,VWS V14.01,2013-08-17 20:21:00,
2013-08-17 13:26:00,94.1,56.0,29.77,NW,321,3.0,0.0,28,0.00,,---,0.00,VWS V14.01,2013-08-17 20:26:00,
2013-08-17 13:31:00,94.5,53.3,29.77,NW,321,1.0,0.0,25,0.00,,---,0.00,VWS V14.01,2013-08-17 20:31:00,
2013-08-17 13:37:00,94.6,55.5,29.77,NE,37,2.0,0.0,27,0.00,,---,0.00,VWS V14.01,2013-08-17 20:37:00,
2013-08-17 13:42:00,95.1,55.9,29.77,NNE,30,0.0,0.0,27,0.00,,---,0.00,VWS V14.01,2013-08-17 20:42:00,
2013-08-17 13:47:00,95.3,54.0,29.76,NW,309,0.0,0.0,25,0.00,,---,0.00,VWS V14.01,2013-08-17 20:47:00,
2013-08-17 13:52:00,94.0,51.8,29.76,North,360,1.0,0.0,24,0.00,,---,0.00,VWS V14.01,2013-08-17 20:52:00,
2013-08-17 13:57:00,93.8,54.8,29.76,WNW,288,1.0,0.0,27,0.00,,---,0.00,VWS V14.01,2013-08-17 20:57:00,
2013-08-17 14:02:00,93.7,53.7,29.76,NW,324,2.0,0.0,26,0.00,,---,0.00,VWS V14.01,2013-08-17 21:02:00,
2013-08-17 14:07:00,94.3,53.1,29.76,East,99,1.0,0.0,25,0.00,,---,0.00,VWS V14.01,2013-08-17 21:07:00,
2013-08-17 14:12:00,94.4,55.3,29.76,NNE,17,0.0,0.0,27,0.00,,---,0.00,VWS V14.01,2013-08-17 21:12:00,
2013-08-17 14:17:00,94.8,55.6,29.75,SSW,196,0.0,0.0,27,0.00,,---,0.00,VWS V14.01,2013-08-17 21:17:00,
2013-08-17 14:22:00,95.3,54.0,29.75,North,5,0.0,0.0,25,0.00,,---,0.00,VWS V14.01,2013-08-17 21:22:00,
2013-08-17 14:27:00,95.7,53.2,29.75,ENE,76,1.0,0.0,24,0.00,,---,0.00,VWS V14.01,2013-08-17 21:27:00,
2013-08-17 14:32:00,95.7,53.2,29.75,NE,44,2.0,0.0,24,0.00,,---,0.00,VWS V14.01,2013-08-17 21:32:00,
2013-08-17 14:37:00,95.7,52.0,29.75,ESE,117,0.0,0.0,23,0.00,,---,0.00,VWS V14.01,2013-08-17 21:37:00,
2013-08-17 14:42:00,95.3,52.8,29.75,NW,322,3.0,0.0,24,0.00,,---,0.00,VWS V14.01,2013-08-17 21:42:00,
2013-08-17 14:47:00,95.5,54.1,29.74,NE,46,7.0,0.0,25,0.00,,---,0.00,VWS V14.01,2013-08-17 21:47:00,
2013-08-17 14:52:00,96.0,52.3,29.74,West,262,1.0,0.0,23,0.00,,---,0.00,VWS V14.01,2013-08-17 21:52:00,
2013-08-17 14:57:00,95.3,54.0,29.74,NE,51,1.0,0.0,25,0.00,,---,0.00,VWS V14.01,2013-08-17 21:57:00,
2013-08-17 15:02:00,95.4,51.8,29.74,NNW,329,1.0,0.0,23,0.00,,---,0.00,VWS V14.01,2013-08-17 22:02:00,
2013-08-17 15:07:00,95.8,54.4,29.74,NNW,346,1.0,0.0,25,0.00,,---,0.00,VWS V14.01,2013-08-17 22:07:00,
2013-08-17 15:12:00,96.2,56.8,29.73,NW,317,1.0,0.0,27,0.00,,---,0.00,VWS V14.01,2013-08-17 22:12:00,
2013-08-17 15:17:00,96.6,53.9,29.73,ENE,60,0.0,0.0,24,0.00,,---,0.00,VWS V14.01,2013-08-17 22:17:00,
2013-08-17 15:22:00,96.4,52.6,29.73,ENE,77,2.0,0.0,23,0.00,,---,0.00,VWS V14.01,2013-08-17 22:22:00,
2013-08-17 15:27:00,95.9,52.2,29.73,NE,35,0.0,0.0,23,0.00,,---,0.00,VWS V14.01,2013-08-17 22:27:00,
2013-08-17 15:32:00,96.2,53.6,29.73,NNW,338,0.0,0.0,24,0.00,,---,0.00,VWS V14.01,2013-08-17 22:32:00,
2013-08-17 15:38:00,96.7,52.8,29.72,NE,44,1.0,0.0,23,0.00,,---,0.00,VWS V14.01,2013-08-17 22:38:00,
2013-08-17 15:43:00,96.7,55.1,29.72,NW,309,4.0,0.0,25,0.00,,---,0.00,VWS V14.01,2013-08-17 22:43:00,
2013-08-17 15:48:00,96.3,53.7,29.72,NE,34,0.0,0.0,24,0.00,,---,0.00,VWS V14.01,2013-08-17 22:48:00,
2013-08-17 15:53:00,96.5,53.8,29.71,NE,38,2.0,0.0,24,0.00,,---,0.00,VWS V14.01,2013-08-17 22:53:00,
2013-08-17 15:58:00,96.8,52.9,29.71,NNW,332,0.0,0.0,23,0.00,,---,0.00,VWS V14.01,2013-08-17 22:58:00,
2013-08-17 16:03:00,96.9,53.0,29.71,ENE,57,2.0,0.0,23,0.00,,---,0.00,VWS V14.01,2013-08-17 23:03:00,
2013-08-17 16:08:00,96.9,54.2,29.71,NE,37,5.0,0.0,24,0.00,,---,0.00,VWS V14.01,2013-08-17 23:08:00,
2013-08-17 16:13:00,96.8,54.1,29.71,ENE,62,1.0,0.0,24,0.00,,---,0.00,VWS V14.01,2013-08-17 23:13:00,
2013-08-17 16:18:00,96.4,52.6,29.71,NNW,347,1.0,0.0,23,0.00,,---,0.00,VWS V14.01,2013-08-17 23:18:00,
2013-08-17 16:23:00,95.7,53.2,29.71,NNE,32,0.0,0.0,24,0.00,,---,0.00,VWS V14.01,2013-08-17 23:23:00,
2013-08-17 16:28:00,95.6,53.1,29.70,East,99,1.0,0.0,24,0.00,,---,0.00,VWS V14.01,2013-08-17 23:28:00,
2013-08-17 16:33:00,95.5,50.7,29.70,WNW,282,0.0,0.0,22,0.00,,---,0.00,VWS V14.01,2013-08-17 23:33:00,
2013-08-17 16:38:00,95.2,51.6,29.70,NNE,22,1.0,0.0,23,0.00,,---,0.00,VWS V14.01,2013-08-17 23:38:00,
2013-08-17 16:43:00,95.5,51.8,29.70,ENE,62,2.0,0.0,23,0.00,,---,0.00,VWS V14.01,2013-08-17 23:43:00,
2013-08-17 16:48:00,95.9,49.7,29.70,NE,53,0.0,0.0,21,0.00,,---,0.00,VWS V14.01,2013-08-17 23:48:00,
2013-08-17 16:53:00,95.9,51.0,29.70,NE,37,0.0,0.0,22,0.00,,---,0.00,VWS V14.01,2013-08-17 23:53:00,
2013-08-17 16:58:00,95.6,48.2,29.69,ENE,63,1.0,0.0,20,0.00,,---,0.00,VWS V14.01,2013-08-17 23:58:00,
2013-08-17 17:03:00,94.8,48.8,29.69,ENE,65,1.0,0.0,21,0.00,,---,0.00,VWS V14.01,2013-08-18 00:03:00,
2013-08-17 17:08:00,94.4,49.7,29.69,ENE,72,0.0,0.0,22,0.00,,---,0.00,VWS V14.01,2013-08-18 00:08:00,
2013-08-17 17:13:00,94.4,50.9,29.69,NNE,30,2.0,0.0,23,0.00,,---,0.00,VWS V14.01,2013-08-18 00:13:00,
2013-08-17 17:18:00,94.4,50.9,29.69,North,9,1.0,0.0,23,0.00,,---,0.00,VWS V14.01,2013-08-18 00:18:00,
2013-08-17 17:23:00,94.5,55.4,29.69,NW,315,0.0,0.0,27,0.00,,---,0.00,VWS V14.01,2013-08-18 00:23:00,
2013-08-17 17:28:00,94.4,54.3,29.69,NE,55,2.0,0.0,26,0.00,,---,0.00,VWS V14.01,2013-08-18 00:28:00,
2013-08-17 17:33:00,94.1,56.0,29.69,West,269,0.0,0.0,28,0.00,,---,0.00,VWS V14.01,2013-08-18 00:33:00,
2013-08-17 17:38:00,93.7,53.7,29.69,NW,311,0.0,0.0,26,0.00,,---,0.00,VWS V14.01,2013-08-18 00:38:00,
2013-08-17 17:43:00,93.5,51.3,29.69,WNW,294,1.0,0.0,24,0.00,,---,0.00,VWS V14.01,2013-08-18 00:43:00,
2013-08-17 17:48:00,93.3,52.3,29.69,ENE,69,0.0,0.0,25,0.00,,---,0.00,VWS V14.01,2013-08-18 00:48:00,
2013-08-17 17:54:00,93.3,52.3,29.69,NE,38,0.0,0.0,25,0.00,,---,0.00,VWS V14.01,2013-08-18 00:54:00,
2013-08-17 17:59:00,93.3,52.3,29.69,NNE,19,0.0,0.0,25,0.00,,---,0.00,VWS V14.01,2013-08-18 00:59:00,
2013-08-17 18:04:00,93.4,52.3,29.68,NNE,23,2.0,0.0,25,0.00,,---,0.00,VWS V14.01,2013-08-18 01:04:00,
2013-08-17 18:09:00,93.5,52.4,29.68,NNE,18,0.0,0.0,25,0.00,,---,0.00,VWS V14.01,2013-08-18 01:09:00,
2013-08-17 18:14:00,93.4,51.2,29.68,NE,55,0.0,0.0,24,0.00,,---,0.00,VWS V14.01,2013-08-18 01:14:00,
2013-08-17 18:19:00,93.4,52.3,29.67,NE,55,0.0,0.0,25,0.00,,---,0.00,VWS V14.01,2013-08-18 01:19:00,
2013-08-17 18:24:00,93.5,53.5,29.68,West,278,0.0,0.0,26,0.00,,---,0.00,VWS V14.01,2013-08-18 01:24:00,
2013-08-17 18:29:00,93.5,55.5,29.68,NW,313,0.0,0.0,28,0.00,,---,0.00,VWS V14.01,2013-08-18 01:29:00,
2013-08-17 18:34:00,93.5,53.5,29.68,NNE,19,2.0,0.0,26,0.00,,---,0.00,VWS V14.01,2013-08-18 01:34:00,
2013-08-17 18:39:00,93.5,53.5,29.68,West,265,0.0,0.0,26,0.00,,---,0.00,VWS V14.01,2013-08-18 01:39:00,
2013-08-17 18:44:00,93.4,54.5,29.68,NNE,25,0.0,0.0,27,0.00,,---,0.00,VWS V14.01,2013-08-18 01:44:00,
2013-08-17 18:49:00,93.3,52.3,29.68,North,360,0.0,0.0,25,0.00,,---,0.00,VWS V14.01,2013-08-18 01:49:00,
2013-08-17 18:54:00,93.1,53.2,29.67,ENE,63,1.0,0.0,26,0.00,,---,0.00,VWS V14.01,2013-08-18 01:54:00,
2013-08-17 18:59:00,92.8,52.9,29.67,North,5,0.0,0.0,26,0.00,,---,0.00,VWS V14.01,2013-08-18 01:59:00,
2013-08-17 19:04:00,92.6,53.8,29.67,WNW,301,0.0,0.0,27,0.00,,---,0.00,VWS V14.01,2013-08-18 02:04:00,
2013-08-17 19:09:00,92.2,52.4,29.67,West,281,0.0,0.0,26,0.00,,---,0.00,VWS V14.01,2013-08-18 02:09:00,
2013-08-17 19:14:00,91.9,53.2,29.67,WNW,284,0.0,0.0,27,0.00,,---,0.00,VWS V14.01,2013-08-18 02:14:00,
2013-08-17 19:19:00,91.3,57.3,29.68,NE,40,0.0,0.0,32,0.00,,---,0.00,VWS V14.01,2013-08-18 02:19:00,
2013-08-17 19:24:00,90.5,59.9,29.68,NE,36,0.0,0.0,36,0.00,,---,0.00,VWS V14.01,2013-08-18 02:24:00,
2013-08-17 19:29:00,89.4,61.2,29.67,NW,325,0.0,0.0,39,0.00,,---,0.00,VWS V14.01,2013-08-18 02:29:00,
2013-08-17 19:34:00,88.6,61.2,29.68,NW,319,0.0,0.0,40,0.00,,---,0.00,VWS V14.01,2013-08-18 02:34:00,
2013-08-17 19:39:00,87.7,61.8,29.68,NW,321,0.0,0.0,42,0.00,,---,0.00,VWS V14.01,2013-08-18 02:39:00,
2013-08-17 19:44:00,86.8,61.6,29.68,WNW,288,0.0,0.0,43,0.00,,---,0.00,VWS V14.01,2013-08-18 02:44:00,
2013-08-17 19:49:00,86.2,61.1,29.68,WNW,292,2.0,0.0,43,0.00,,---,0.00,VWS V14.01,2013-08-18 02:49:00,
2013-08-17 19:54:00,85.5,61.8,29.67,North,355,0.0,0.0,45,0.00,,---,0.00,VWS V14.01,2013-08-18 02:54:00,
2013-08-17 19:59:00,85.0,61.3,29.68,NW,314,0.0,0.0,45,0.00,,---,0.00,VWS V14.01,2013-08-18 02:59:00,
2013-08-17 20:04:00,84.6,61.6,29.68,North,355,0.0,0.0,46,0.00,,---,0.00,VWS V14.01,2013-08-18 03:04:00,
2013-08-17 20:09:00,84.1,60.5,29.69,NNW,342,0.0,0.0,45,0.00,,---,0.00,VWS V14.01,2013-08-18 03:09:00,
2013-08-17 20:14:00,83.7,61.3,29.68,North,349,0.0,0.0,47,0.00,,---,0.00,VWS V14.01,2013-08-18 03:14:00,
2013-08-17 20:19:00,83.2,59.7,29.69,WNW,290,0.0,0.0,45,0.00,,---,0.00,VWS V14.01,2013-08-18 03:19:00,
2013-08-17 20:24:00,82.7,59.2,29.69,SW,232,1.0,0.0,45,0.00,,---,0.00,VWS V14.01,2013-08-18 03:24:00,
2013-08-17 20:29:00,82.3,59.5,29.69,SW,230,0.0,0.0,46,0.00,,---,0.00,VWS V14.01,2013-08-18 03:29:00,
2013-08-17 20:34:00,81.9,59.7,29.69,SW,230,0.0,0.0,47,0.00,,---,0.00,VWS V14.01,2013-08-18 03:34:00,
2013-08-17 20:39:00,81.6,60.0,29.70,SW,231,0.0,0.0,48,0.00,,---,0.00,VWS V14.01,2013-08-18 03:39:00,
2013-08-17 20:44:00,81.1,59.0,29.70,South,190,0.0,0.0,47,0.00,,---,0.00,VWS V14.01,2013-08-18 03:44:00,
2013-08-17 20:49:00,80.7,58.6,29.70,NE,54,0.0,0.0,47,0.00,,---,0.00,VWS V14.01,2013-08-18 03:49:00,
2013-08-17 20:54:00,80.3,58.8,29.70,NNE,32,0.0,0.0,48,0.00,,---,0.00,VWS V14.01,2013-08-18 03:54:00,
2013-08-17 20:59:00,80.1,58.7,29.70,NNE,32,0.0,0.0,48,0.00,,---,0.00,VWS V14.01,2013-08-18 03:59:00,
2013-08-17 21:01:00,80.0,58.6,29.70,SE,139,1.0,0.0,48,0.00,,---,0.00,VWS V14.01,2013-08-18 04:01:00,
2013-08-17 21:02:00,79.9,59.0,29.70,WNW,286,2.0,0.0,49,0.00,,---,0.00,VWS V14.01,2013-08-18 04:02:00,
2013-08-17 21:07:00,79.6,58.8,29.72,NW,321,0.0,0.0,49,0.00,,---,0.00,VWS V14.01,2013-08-18 04:07:00,
2013-08-17 21:12:00,79.4,58.6,29.72,NNE,13,1.0,0.0,49,0.00,,---,0.00,VWS V14.01,2013-08-18 04:12:00,
2013-08-17 21:17:00,79.1,59.4,29.71,North,10,0.0,0.0,51,0.00,,---,0.00,VWS V14.01,2013-08-18 04:17:00,
2013-08-17 21:22:00,78.9,58.7,29.71,North,10,0.0,0.0,50,0.00,,---,0.00,VWS V14.01,2013-08-18 04:22:00,
2013-08-17 21:27:00,78.6,59.0,29.71,North,10,0.0,0.0,51,0.00,,---,0.00,VWS V14.01,2013-08-18 04:27:00,
2013-08-17 21:32:00,78.4,58.8,29.71,North,10,0.0,0.0,51,0.00,,---,0.00,VWS V14.01,2013-08-18 04:32:00,
2013-08-17 21:37:00,78.1,58.5,29.71,North,10,0.0,0.0,51,0.00,,---,0.00,VWS V14.01,2013-08-18 04:37:00,
2013-08-17 21:42:00,77.8,58.2,29.71,North,10,0.0,0.0,51,0.00,,---,0.00,VWS V14.01,2013-08-18 04:42:00,
2013-08-17 21:47:00,77.6,58.1,29.72,North,10,0.0,0.0,51,0.00,,---,0.00,VWS V14.01,2013-08-18 04:47:00,
2013-08-17 21:52:00,77.5,58.5,29.72,North,10,0.0,0.0,52,0.00,,---,0.00,VWS V14.01,2013-08-18 04:52:00,
2013-08-17 21:57:00,77.4,57.9,29.72,North,10,0.0,0.0,51,0.00,,---,0.00,VWS V14.01,2013-08-18 04:57:00,
2013-08-17 22:02:00,77.2,57.7,29.72,North,10,0.0,0.0,51,0.00,,---,0.00,VWS V14.01,2013-08-18 05:02:00,
2013-08-17 22:07:00,77.1,57.6,29.71,NW,314,0.0,0.0,51,0.00,,---,0.00,VWS V14.01,2013-08-18 05:07:00,
2013-08-17 22:12:00,77.0,57.5,29.71,NW,314,0.0,0.0,51,0.00,,---,0.00,VWS V14.01,2013-08-18 05:12:00,
2013-08-17 22:17:00,77.0,57.5,29.71,NW,314,0.0,0.0,51,0.00,,---,0.00,VWS V14.01,2013-08-18 05:17:00,
2013-08-17 22:22:00,76.9,57.4,29.72,NW,319,0.0,0.0,51,0.00,,---,0.00,VWS V14.01,2013-08-18 05:22:00,
2013-08-17 22:27:00,76.9,56.9,29.72,NW,319,0.0,0.0,50,0.00,,---,0.00,VWS V14.01,2013-08-18 05:27:00,
2013-08-17 22:32:00,76.7,57.2,29.72,NW,319,0.0,0.0,51,0.00,,---,0.00,VWS V14.01,2013-08-18 05:32:00,
2013-08-17 22:38:00,76.6,57.1,29.72,NW,319,0.0,0.0,51,0.00,,---,0.00,VWS V14.01,2013-08-18 05:38:00,
2013-08-17 22:43:00,76.3,57.9,29.72,NW,319,0.0,0.0,53,0.00,,---,0.00,VWS V14.01,2013-08-18 05:43:00,
2013-08-17 22:48:00,76.0,57.1,29.72,South,178,0.0,0.0,52,0.00,,---,0.00,VWS V14.01,2013-08-18 05:48:00,
2013-08-17 22:53:00,75.9,57.6,29.72,South,178,0.0,0.0,53,0.00,,---,0.00,VWS V14.01,2013-08-18 05:53:00,
2013-08-17 22:58:00,75.7,57.4,29.72,South,178,0.0,0.0,53,0.00,,---,0.00,VWS V14.01,2013-08-18 05:58:00,
2013-08-17 23:03:00,75.6,57.3,29.71,South,178,0.0,0.0,53,0.00,,---,0.00,VWS V14.01,2013-08-18 06:03:00,
2013-08-17 23:08:00,75.4,57.6,29.71,South,178,0.0,0.0,54,0.00,,---,0.00,VWS V14.01,2013-08-18 06:08:00,
2013-08-17 23:13:00,75.3,57.5,29.71,South,178,0.0,0.0,54,0.00,,---,0.00,VWS V14.01,2013-08-18 06:13:00,
2013-08-17 23:18:00,75.1,57.3,29.71,South,178,0.0,0.0,54,0.00,,---,0.00,VWS V14.01,2013-08-18 06:18:00,
2013-08-17 23:23:00,75.0,57.2,29.71,South,178,0.0,0.0,54,0.00,,---,0.00,VWS V14.01,2013-08-18 06:23:00,
2013-08-17 23:28:00,75.0,57.8,29.71,South,178,0.0,0.0,55,0.00,,---,0.00,VWS V14.01,2013-08-18 06:28:00,
2013-08-17 23:33:00,74.8,57.6,29.71,South,178,0.0,0.0,55,0.00,,---,0.00,VWS V14.01,2013-08-18 06:33:00,
2013-08-17 23:38:00,74.8,58.1,29.71,South,178,0.0,0.0,56,0.00,,---,0.00,VWS V14.01,2013-08-18 06:38:00,
2013-08-17 23:43:00,74.7,57.5,29.71,South,178,0.0,0.0,55,0.00,,---,0.00,VWS V14.01,2013-08-18 06:43:00,
2013-08-17 23:48:00,74.6,57.4,29.71,South,178,0.0,0.0,55,0.00,,---,0.00,VWS V14.01,2013-08-18 06:48:00,
2013-08-17 23:53:00,74.5,57.3,29.71,South,178,0.0,0.0,55,0.00,,---,0.00,VWS V14.01,2013-08-18 06:53:00,
2013-08-17 23:58:00,74.4,56.7,29.71,South,178,0.0,0.0,54,0.00,,---,0.00,VWS V14.01,2013-08-18 06:58:00,